createdAt,value
2023-03-18T00:01:04.275Z,94235.66
2023-03-18T00:03:32.689Z,94246.75
2023-03-18T00:06:24.170Z,94236.78
2023-03-18T00:08:51.006Z,94233.19
2023-03-18T00:11:20.242Z,94240.75
2023-03-18T00:13:48.113Z,94235.59
2023-03-18T00:16:16.689Z,94236.28
2023-03-18T00:18:43.963Z,94243.41
2023-03-18T00:21:11.142Z,94243.84
2023-03-18T00:23:38.837Z,94228.66
2023-03-18T00:26:06.844Z,94250.56
2023-03-18T00:28:33.640Z,94230.59
2023-03-18T00:31:10.334Z,94239.09
2023-03-18T00:33:40.182Z,94249.31
2023-03-18T00:36:10.424Z,94251.34
2023-03-18T00:38:37.630Z,94253.59
2023-03-18T00:41:11.593Z,94251.25
2023-03-18T00:43:49.467Z,94256.22
2023-03-18T00:46:19.528Z,94261.53
2023-03-18T00:48:47.495Z,94264.81
2023-03-18T00:51:17.293Z,94250.28
2023-03-18T00:53:47.724Z,94244.56
2023-03-18T00:56:16.504Z,94231.28
2023-03-18T00:58:43.336Z,94237.44
2023-03-18T01:01:10.402Z,94244.28
2023-03-18T01:03:37.189Z,94245.34
2023-03-18T01:06:04.386Z,94255.38
2023-03-18T01:08:32.213Z,94248.63
2023-03-18T01:10:59.564Z,94249.56
2023-03-18T01:13:26.358Z,94249.69
2023-03-18T01:15:53.369Z,94250.25
2023-03-18T01:18:21.106Z,94249.94
2023-03-18T01:20:48.860Z,94238.84
2023-03-18T01:23:15.828Z,94229.66
2023-03-18T01:25:44.795Z,94246.75
2023-03-18T01:28:13.501Z,94245.28
2023-03-18T01:30:41.084Z,94229.91
2023-03-18T01:33:08.077Z,94221.94
2023-03-18T01:35:36.497Z,94235.97
2023-03-18T01:38:05.719Z,94236.81
2023-03-18T01:40:36.329Z,94235.03
2023-03-18T01:43:24.997Z,94241.78
2023-03-18T01:45:55.464Z,94239.84
2023-03-18T01:48:26.218Z,94235.22
2023-03-18T01:50:59.792Z,94239.56
2023-03-18T01:53:32.763Z,94232.75
2023-03-18T01:56:01.408Z,94237.78
2023-03-18T01:58:36.836Z,94224.50
2023-03-18T02:01:14.830Z,94238.47
2023-03-18T02:03:42.995Z,94238.47
2023-03-18T02:06:12.489Z,94248.31
2023-03-18T02:08:41.050Z,94242.53
2023-03-18T02:11:09.744Z,94245.41
2023-03-18T02:13:40.785Z,94238.84
2023-03-18T02:16:18.582Z,94245.28
2023-03-18T02:18:56.646Z,94248.00
2023-03-18T02:21:42.647Z,94249.25
2023-03-18T02:24:51.694Z,94244.34
2023-03-18T02:27:31.888Z,94244.50
2023-03-18T02:30:05.103Z,94250.25
2023-03-18T02:32:33.598Z,94245.28
2023-03-18T02:35:04.634Z,94238.28
2023-03-18T02:37:31.460Z,94242.56
2023-03-18T02:40:31.206Z,94236.22
2023-03-18T02:43:15.757Z,94238.69
2023-03-18T02:46:38.448Z,94247.47
2023-03-18T02:49:07.894Z,94260.13
2023-03-18T02:51:37.241Z,94256.63
2023-03-18T02:54:10.327Z,94259.72
2023-03-18T02:56:42.484Z,94239.88
2023-03-18T02:59:11.024Z,94260.97
2023-03-18T03:01:39.380Z,94256.56
2023-03-18T03:04:07.699Z,94244.44
2023-03-18T03:06:36.098Z,94260.75
2023-03-18T03:09:05.631Z,94252.69
2023-03-18T03:11:33.190Z,94256.09
2023-03-18T03:14:00.099Z,94253.94
2023-03-18T03:16:26.884Z,94257.22
2023-03-18T03:18:53.862Z,94258.59
2023-03-18T03:21:20.646Z,94255.00
2023-03-18T03:23:48.348Z,94258.16
2023-03-18T03:26:16.857Z,94261.56
2023-03-18T03:28:44.227Z,94267.34
2023-03-18T03:31:11.256Z,94260.88
2023-03-18T03:33:43.807Z,94270.63
2023-03-18T03:36:14.612Z,94262.00
2023-03-18T03:38:41.793Z,94265.47
2023-03-18T03:41:11.684Z,94268.88
2023-03-18T03:43:41.283Z,94274.47
2023-03-18T03:46:09.536Z,94272.00
2023-03-18T03:48:36.435Z,94272.97
2023-03-18T03:51:03.519Z,94255.56
2023-03-18T03:53:30.287Z,94263.25
2023-03-18T03:55:59.138Z,94268.88
2023-03-18T03:58:26.876Z,94272.84
2023-03-18T04:00:53.644Z,94271.75
2023-03-18T04:03:20.405Z,94273.38
2023-03-18T04:05:47.884Z,94264.63
2023-03-18T04:08:14.665Z,94266.81
2023-03-18T04:10:41.554Z,94270.09
2023-03-18T04:13:08.954Z,94275.28
2023-03-18T04:15:36.007Z,94275.97
2023-03-18T04:18:07.223Z,94269.00
2023-03-18T04:20:38.844Z,94268.47
2023-03-18T04:23:07.479Z,94275.28
2023-03-18T04:25:35.410Z,94275.84
2023-03-18T04:28:03.286Z,94274.88
2023-03-18T04:30:30.900Z,94258.19
2023-03-18T04:32:59.800Z,94270.34
2023-03-18T04:35:28.438Z,94275.16
2023-03-18T04:37:55.421Z,94269.25
2023-03-18T04:40:22.246Z,94265.16
2023-03-18T04:42:49.040Z,94269.91
2023-03-18T04:45:17.700Z,94284.69
2023-03-18T04:47:45.591Z,94279.84
2023-03-18T04:50:14.350Z,94277.66
2023-03-18T04:52:42.869Z,94275.22
2023-03-18T04:55:10.866Z,94284.66
2023-03-18T04:57:38.629Z,94274.97
2023-03-18T05:00:11.786Z,94283.94
2023-03-18T05:02:39.991Z,94278.16
2023-03-18T05:05:07.957Z,94286.00
2023-03-18T05:07:34.778Z,94279.25
2023-03-18T05:10:01.549Z,94279.69
2023-03-18T05:12:28.334Z,94284.22
2023-03-18T05:14:55.190Z,94269.56
2023-03-18T05:17:21.934Z,94270.59
2023-03-18T05:19:49.260Z,94269.16
2023-03-18T05:22:19.739Z,94270.53
2023-03-18T05:24:46.990Z,94277.34
2023-03-18T05:27:17.323Z,94289.78
2023-03-18T05:29:44.725Z,94285.28
2023-03-18T05:32:12.787Z,94283.31
2023-03-18T05:34:41.447Z,94284.41
2023-03-18T05:37:11.173Z,94290.06
2023-03-18T05:39:38.526Z,94291.78
2023-03-18T05:42:06.516Z,94282.41
2023-03-18T05:44:34.138Z,94294.59
2023-03-18T05:47:01.784Z,94287.28
2023-03-18T05:49:29.107Z,94284.28
2023-03-18T05:51:55.923Z,94273.34
2023-03-18T05:54:23.564Z,94266.91
2023-03-18T05:56:52.512Z,94279.59
2023-03-18T05:59:22.210Z,94274.00
2023-03-18T06:01:49.313Z,94280.44
2023-03-18T06:04:20.064Z,94282.66
2023-03-18T06:06:48.463Z,94283.69
2023-03-18T06:09:16.682Z,94277.47
2023-03-18T06:11:44.686Z,94281.22
2023-03-18T06:14:12.823Z,94283.69
2023-03-18T06:16:40.379Z,94278.16
2023-03-18T06:19:08.202Z,94286.66
2023-03-18T06:21:35.002Z,94290.59
2023-03-18T06:24:02.387Z,94286.28
2023-03-18T06:26:29.486Z,94303.09
2023-03-18T06:28:58.514Z,94301.88
2023-03-18T06:31:26.122Z,94290.00
2023-03-18T06:33:53.479Z,94307.03
2023-03-18T06:36:21.771Z,94307.97
2023-03-18T06:38:48.556Z,94301.16
2023-03-18T06:41:16.390Z,94307.09
2023-03-18T06:43:43.440Z,94300.38
2023-03-18T06:46:10.749Z,94303.16
2023-03-18T06:48:40.507Z,94293.06
2023-03-18T06:51:07.914Z,94293.63
2023-03-18T06:53:36.521Z,94297.25
2023-03-18T06:56:06.148Z,94287.66
2023-03-18T06:58:32.884Z,94300.81
2023-03-18T07:01:00.488Z,94298.81
2023-03-18T07:03:28.293Z,94300.06
2023-03-18T07:05:56.131Z,94295.97
2023-03-18T07:08:23.584Z,94300.78
2023-03-18T07:10:54.695Z,94302.03
2023-03-18T07:13:22.677Z,94301.22
2023-03-18T07:15:49.687Z,94305.50
2023-03-18T07:18:16.534Z,94302.78
2023-03-18T07:20:43.533Z,94303.34
2023-03-18T07:23:10.717Z,94299.66
2023-03-18T07:25:37.546Z,94308.19
2023-03-18T07:28:05.859Z,94308.47
2023-03-18T07:30:34.081Z,94310.34
2023-03-18T07:33:01.317Z,94297.22
2023-03-18T07:35:28.752Z,94288.41
2023-03-18T07:37:55.689Z,94289.78
2023-03-18T07:40:22.883Z,94300.22
2023-03-18T07:42:51.726Z,94295.59
2023-03-18T07:45:18.599Z,94305.81
2023-03-18T07:47:47.273Z,94302.94
2023-03-18T07:50:14.468Z,94308.38
2023-03-18T07:52:42.022Z,94286.69
2023-03-18T07:55:09.457Z,94305.19
2023-03-18T07:57:36.803Z,94300.13
2023-03-18T08:00:06.092Z,94298.09
2023-03-18T08:02:34.085Z,94288.63
2023-03-18T08:05:00.956Z,94295.47
2023-03-18T08:07:27.779Z,94300.59
2023-03-18T08:09:54.615Z,94305.22
2023-03-18T08:12:21.956Z,94267.22
2023-03-18T08:14:49.839Z,94302.75
2023-03-18T08:17:16.723Z,94302.72
2023-03-18T08:19:43.519Z,94299.81
2023-03-18T08:22:13.235Z,94304.66
2023-03-18T08:24:39.969Z,94306.47
2023-03-18T08:27:07.145Z,94306.03
2023-03-18T08:29:33.906Z,94305.72
2023-03-18T08:32:01.402Z,94303.66
2023-03-18T08:34:28.369Z,94296.41
2023-03-18T08:36:55.225Z,94283.84
2023-03-18T08:39:22.800Z,94281.16
2023-03-18T08:41:49.512Z,94289.56
2023-03-18T08:44:16.591Z,94281.53
2023-03-18T08:46:43.346Z,94278.94
2023-03-18T08:49:10.899Z,94284.78
2023-03-18T08:51:38.634Z,94272.50
2023-03-18T08:54:05.948Z,94275.88
2023-03-18T08:56:32.708Z,94279.88
2023-03-18T08:58:59.419Z,94270.38
2023-03-18T09:01:26.366Z,94277.97
2023-03-18T09:03:53.753Z,94273.22
2023-03-18T09:06:21.178Z,94268.75
2023-03-18T09:08:47.963Z,94269.50
2023-03-18T09:11:14.809Z,94268.88
2023-03-18T09:13:41.584Z,94255.59
2023-03-18T09:16:08.570Z,94267.06
2023-03-18T09:18:35.540Z,94260.31
2023-03-18T09:21:03.418Z,94264.47
2023-03-18T09:23:30.231Z,94227.09
2023-03-18T09:25:57.355Z,94251.75
2023-03-18T09:28:24.208Z,94257.28
2023-03-18T09:30:51.521Z,94245.84
2023-03-18T09:33:19.687Z,94252.81
2023-03-18T09:35:46.795Z,94258.56
2023-03-18T09:38:19.980Z,94260.63
2023-03-18T09:41:02.817Z,94262.47
2023-03-18T09:43:45.082Z,94254.69
2023-03-18T09:46:25.604Z,94251.22
2023-03-18T09:49:16.774Z,94257.34
2023-03-18T09:51:58.750Z,94254.50
2023-03-18T09:54:41.472Z,94255.88
2023-03-18T09:57:30.697Z,94250.19
2023-03-18T10:00:28.846Z,94250.41
2023-03-18T10:03:11.264Z,94252.66
2023-03-18T10:05:56.346Z,94247.31
2023-03-18T10:08:51.381Z,94246.28
2023-03-18T10:11:31.258Z,94237.22
2023-03-18T10:14:37.130Z,94240.88
2023-03-18T10:17:26.152Z,94242.53
2023-03-18T10:20:09.350Z,94238.84
2023-03-18T10:23:00.410Z,94241.59
2023-03-18T10:25:43.981Z,94236.16
2023-03-18T10:28:47.437Z,94236.50
2023-03-18T10:31:23.785Z,94232.78
2023-03-18T10:34:02.861Z,94231.56
2023-03-18T10:36:48.286Z,94227.13
2023-03-18T10:39:23.504Z,94233.16
2023-03-18T10:41:52.517Z,94234.72
2023-03-18T10:44:38.855Z,94222.31
2023-03-18T10:47:08.394Z,94240.78
2023-03-18T10:49:43.801Z,94235.72
2023-03-18T10:52:38.148Z,94228.06
2023-03-18T10:55:14.357Z,94228.50
2023-03-18T10:57:41.558Z,94221.56
2023-03-18T11:00:30.350Z,94214.41
2023-03-18T11:02:57.807Z,94208.72
2023-03-18T11:05:33.828Z,94204.56
2023-03-18T11:08:09.097Z,94212.78
2023-03-18T11:10:40.578Z,94201.91
2023-03-18T11:13:07.462Z,94223.94
2023-03-18T11:15:40.460Z,94224.66
2023-03-18T11:18:14.538Z,94225.94
2023-03-18T11:20:44.953Z,94230.44
2023-03-18T11:23:56.534Z,94225.25
2023-03-18T11:26:29.636Z,94212.53
2023-03-18T11:29:05.819Z,94206.34
2023-03-18T11:31:32.891Z,94199.66
2023-03-18T11:34:00.752Z,94203.09
2023-03-18T11:36:28.596Z,94213.59
2023-03-18T11:39:04.868Z,94209.28
2023-03-18T11:41:31.662Z,94188.50
2023-03-18T11:44:02.314Z,94206.22
2023-03-18T11:46:39.402Z,94202.44
2023-03-18T11:49:09.896Z,94201.53
2023-03-18T11:52:07.162Z,94199.84
2023-03-18T11:54:49.204Z,94192.53
2023-03-18T11:58:05.481Z,94194.22
2023-03-18T12:00:44.002Z,94193.44
2023-03-18T12:03:28.142Z,94192.75
2023-03-18T12:06:30.919Z,94171.03
2023-03-18T12:09:11.773Z,94176.41
2023-03-18T12:11:41.335Z,94169.69
2023-03-18T12:14:10.870Z,94167.75
2023-03-18T12:17:13.445Z,94159.75
2023-03-18T12:20:26.440Z,94160.44
2023-03-18T12:23:30.132Z,94156.25
2023-03-18T12:26:08.640Z,94154.81
2023-03-18T12:29:09.715Z,94152.84
2023-03-18T12:31:57.491Z,94146.34
2023-03-18T12:35:03.103Z,94149.56
2023-03-18T12:38:16.296Z,94143.16
2023-03-18T12:40:51.557Z,94142.28
2023-03-18T12:43:58.655Z,94133.91
2023-03-18T12:46:36.180Z,94129.38
2023-03-18T12:49:25.912Z,94125.84
2023-03-18T12:52:06.456Z,94142.84
2023-03-18T12:54:47.493Z,94125.59
2023-03-18T12:57:38.495Z,94132.75
2023-03-18T13:00:32.641Z,94125.63
2023-03-18T13:03:27.502Z,94138.09
2023-03-18T13:06:19.109Z,94134.94
2023-03-18T13:09:19.144Z,94138.00
2023-03-18T13:12:12.581Z,94120.19
2023-03-18T13:14:45.334Z,94129.72
2023-03-18T13:17:23.610Z,94112.41
2023-03-18T13:19:50.633Z,94121.25
2023-03-18T13:22:36.027Z,94122.16
2023-03-18T13:25:34.787Z,94098.50
2023-03-18T13:28:28.498Z,94120.16
2023-03-18T13:31:12.555Z,94118.78
2023-03-18T13:34:16.080Z,94123.69
2023-03-18T13:40:58.919Z,94128.88
2023-03-18T13:43:26.237Z,94109.69
2023-03-18T13:45:54.218Z,94111.22
2023-03-18T13:48:35.539Z,94117.28
2023-03-18T13:51:34.930Z,94115.41
2023-03-18T13:54:05.846Z,94108.47
2023-03-18T13:56:44.352Z,94102.84
2023-03-18T13:59:35.633Z,94106.78
2023-03-18T14:02:33.882Z,94113.03
2023-03-18T14:05:00.973Z,94112.44
2023-03-18T14:07:28.724Z,94117.44
2023-03-18T14:10:17.168Z,94112.09
2023-03-18T14:12:47.889Z,94107.94
2023-03-18T14:15:15.114Z,94112.91
2023-03-18T14:17:47.874Z,94114.03
2023-03-18T14:20:19.849Z,94102.47
2023-03-18T14:22:53.223Z,94080.69
2023-03-18T14:25:36.481Z,94099.63
2023-03-18T14:28:09.447Z,94095.63
2023-03-18T14:30:37.173Z,94093.13
2023-03-18T14:33:05.254Z,94103.75
2023-03-18T14:35:54.729Z,94102.19
2023-03-18T14:38:26.218Z,94103.00
2023-03-18T14:40:56.387Z,94078.41
2023-03-18T14:43:35.570Z,94092.72
2023-03-18T14:46:17.754Z,94081.97
2023-03-18T14:48:45.228Z,94070.63
2023-03-18T14:51:19.038Z,94082.53
2023-03-18T14:54:07.093Z,94068.84
2023-03-18T14:56:41.259Z,94076.88
2023-03-18T14:59:15.800Z,94079.78
2023-03-18T15:01:48.198Z,94064.63
2023-03-18T15:04:24.125Z,94063.97
2023-03-18T15:06:57.040Z,94069.78
2023-03-18T15:09:28.592Z,94063.91
2023-03-18T15:11:55.858Z,94067.06
2023-03-18T15:14:30.679Z,94053.72
2023-03-18T15:17:07.372Z,94064.38
2023-03-18T15:19:34.107Z,94068.69
2023-03-18T15:22:06.436Z,94053.00
2023-03-18T15:24:33.560Z,94064.00
2023-03-18T15:27:15.264Z,94068.25
2023-03-18T15:29:53.167Z,94074.78
2023-03-18T15:32:31.822Z,94055.41
2023-03-18T15:34:59.005Z,94066.91
2023-03-18T15:37:40.695Z,94058.88
2023-03-18T15:40:32.044Z,94059.38
2023-03-18T15:43:09.402Z,94065.63
2023-03-18T15:45:41.830Z,94061.56
2023-03-18T15:48:24.013Z,94064.22
2023-03-18T15:51:30.987Z,94060.41
2023-03-18T15:54:28.111Z,94061.72
2023-03-18T15:56:59.403Z,94058.47
2023-03-18T15:59:33.738Z,94053.41
2023-03-18T16:02:02.230Z,94062.81
2023-03-18T16:04:34.246Z,94056.63
2023-03-18T16:07:01.081Z,94059.09
2023-03-18T16:09:27.838Z,94058.44
2023-03-18T16:12:02.530Z,94070.50
2023-03-18T16:14:40.083Z,94068.00
2023-03-18T16:17:07.168Z,94069.00
2023-03-18T16:19:34.002Z,94076.13
2023-03-18T16:22:00.809Z,94063.25
2023-03-18T16:24:27.676Z,94077.16
2023-03-18T16:26:56.881Z,94075.53
2023-03-18T16:29:31.667Z,94088.94
2023-03-18T16:31:59.993Z,94094.41
2023-03-18T16:34:27.961Z,94101.44
2023-03-18T16:36:55.419Z,94087.72
2023-03-18T16:39:25.083Z,94086.47
2023-03-18T16:41:52.482Z,94075.41
2023-03-18T16:44:23.584Z,94092.94
2023-03-18T16:46:54.624Z,94102.81
2023-03-18T16:49:27.152Z,94101.72
2023-03-18T16:51:53.964Z,94113.91
2023-03-18T16:54:29.382Z,94115.84
2023-03-18T16:56:59.532Z,94123.97
2023-03-18T16:59:32.132Z,94120.84
2023-03-18T17:01:58.869Z,94122.38
2023-03-18T17:04:29.391Z,94130.84
2023-03-18T17:06:59.831Z,94128.75
2023-03-18T17:09:27.801Z,94099.91
2023-03-18T17:12:00.018Z,94132.31
2023-03-18T17:14:44.050Z,94133.28
2023-03-18T17:17:25.381Z,94133.78
2023-03-18T17:19:52.207Z,94139.88
2023-03-18T17:22:29.230Z,94135.28
2023-03-18T17:24:56.566Z,94138.00
2023-03-18T17:27:49.833Z,94137.44
2023-03-18T17:30:22.646Z,94136.88
2023-03-18T17:32:50.787Z,94144.03
2023-03-18T17:35:21.910Z,94137.34
2023-03-18T17:37:49.529Z,94131.28
2023-03-18T17:40:19.429Z,94141.66
2023-03-18T17:42:48.067Z,94131.53
2023-03-18T17:45:32.464Z,94141.72
2023-03-18T17:48:18.087Z,94143.34
2023-03-18T17:50:45.111Z,94126.84
2023-03-18T17:53:26.771Z,94145.75
2023-03-18T17:55:54.829Z,94142.06
2023-03-18T17:58:24.796Z,94151.00
2023-03-18T18:00:54.096Z,94143.69
2023-03-18T18:03:27.952Z,94147.38
2023-03-18T18:05:56.929Z,94146.13
2023-03-18T18:08:25.755Z,94151.81
2023-03-18T18:10:54.721Z,94132.53
2023-03-18T18:13:23.432Z,94147.88
2023-03-18T18:15:51.189Z,94143.81
2023-03-18T18:18:26.756Z,94149.47
2023-03-18T18:20:57.800Z,94167.31
2023-03-18T18:23:38.957Z,94159.53
2023-03-18T18:26:09.469Z,94165.88
2023-03-18T18:28:42.796Z,94140.78
2023-03-18T18:31:12.262Z,94164.03
2023-03-18T18:33:42.500Z,94164.59
2023-03-18T18:36:10.178Z,94162.63
2023-03-18T18:38:36.997Z,94174.00
2023-03-18T18:41:04.734Z,94169.59
2023-03-18T18:43:31.878Z,94151.13
2023-03-18T18:45:59.261Z,94182.34
2023-03-18T18:48:34.728Z,94177.06
2023-03-18T18:51:04.259Z,94180.06
2023-03-18T18:53:36.719Z,94175.91
2023-03-18T18:56:44.002Z,94181.19
2023-03-18T18:59:24.926Z,94169.25
2023-03-18T19:01:52.092Z,94177.59
2023-03-18T19:04:19.100Z,94193.31
2023-03-18T19:06:46.473Z,94182.66
2023-03-18T19:09:23.784Z,94187.94
2023-03-18T19:11:51.801Z,94186.31
2023-03-18T19:14:29.074Z,94196.19
2023-03-18T19:16:58.830Z,94202.88
2023-03-18T19:19:33.471Z,94204.69
2023-03-18T19:22:00.563Z,94178.84
2023-03-18T19:24:37.120Z,94205.97
2023-03-18T19:27:13.858Z,94196.47
2023-03-18T19:29:41.586Z,94191.34
2023-03-18T19:32:28.577Z,94190.53
2023-03-18T19:34:56.074Z,94201.50
2023-03-18T19:37:29.457Z,94209.81
2023-03-18T19:39:57.247Z,94216.13
2023-03-18T19:42:24.080Z,94198.94
2023-03-18T19:44:51.241Z,94219.84
2023-03-18T19:47:23.033Z,94224.00
2023-03-18T19:49:50.702Z,94220.97
2023-03-18T19:52:24.516Z,94213.78
2023-03-18T19:54:52.839Z,94220.66
2023-03-18T19:57:27.986Z,94222.84
2023-03-18T19:59:58.774Z,94198.81
2023-03-18T20:02:31.573Z,94203.25
2023-03-18T20:05:02.331Z,94218.19
2023-03-18T20:07:32.717Z,94213.63
2023-03-18T20:09:59.814Z,94225.75
2023-03-18T20:12:36.654Z,94236.22
2023-03-18T20:15:05.805Z,94226.88
2023-03-18T20:17:39.500Z,94231.84
2023-03-18T20:20:30.581Z,94228.09
2023-03-18T20:23:02.798Z,94240.75
2023-03-18T20:25:41.278Z,94249.78
2023-03-18T20:28:15.800Z,94246.38
2023-03-18T20:30:43.686Z,94245.59
2023-03-18T20:33:10.628Z,94229.03
2023-03-18T20:35:42.988Z,94240.16
2023-03-18T20:38:33.832Z,94249.34
2023-03-18T20:41:01.112Z,94250.66
2023-03-18T20:43:29.786Z,94255.88
2023-03-18T20:45:59.580Z,94248.34
2023-03-18T20:48:27.920Z,94258.50
2023-03-18T20:50:55.431Z,94257.19
2023-03-18T20:53:31.862Z,94263.75
2023-03-18T20:55:58.679Z,94244.75
2023-03-18T20:58:28.233Z,94263.09
2023-03-18T21:00:55.451Z,94257.47
2023-03-18T21:03:34.865Z,94249.13
2023-03-18T21:06:06.656Z,94266.00
2023-03-18T21:08:33.882Z,94266.81
2023-03-18T21:11:02.153Z,94248.31
2023-03-18T21:13:39.453Z,94261.06
2023-03-18T21:16:15.300Z,94261.91
2023-03-18T21:18:45.429Z,94239.13
2023-03-18T21:21:24.085Z,94258.72
2023-03-18T21:23:52.634Z,94250.22
2023-03-18T21:26:19.425Z,94253.53
2023-03-18T21:28:46.201Z,94236.66
2023-03-18T21:31:24.218Z,94265.13
2023-03-18T21:33:52.288Z,94263.66
2023-03-18T21:36:20.584Z,94248.25
2023-03-18T21:38:47.601Z,94243.97
2023-03-18T21:41:28.139Z,94266.94
2023-03-18T21:43:55.067Z,94254.84
2023-03-18T21:46:24.934Z,94265.63
2023-03-18T21:48:52.250Z,94259.72
2023-03-18T21:51:40.276Z,94265.31
2023-03-18T21:54:18.400Z,94268.50
2023-03-18T21:56:45.164Z,94252.13
2023-03-18T21:59:11.871Z,94246.22
2023-03-18T22:01:38.655Z,94249.13
2023-03-18T22:04:05.708Z,94255.66
2023-03-18T22:06:33.506Z,94260.19
2023-03-18T22:09:00.331Z,94265.13
2023-03-18T22:11:27.776Z,94260.72
2023-03-18T22:13:54.608Z,94255.94
2023-03-18T22:16:21.932Z,94238.09
2023-03-18T22:18:48.776Z,94259.38
2023-03-18T22:21:27.687Z,94266.75
2023-03-18T22:23:55.750Z,94265.00
2023-03-18T22:26:22.742Z,94256.78
2023-03-18T22:28:50.727Z,94266.78
2023-03-18T22:31:26.720Z,94257.94
2023-03-18T22:33:54.288Z,94266.78
2023-03-18T22:36:21.922Z,94256.63
2023-03-18T22:38:49.422Z,94245.78
2023-03-18T22:41:22.686Z,94256.91
2023-03-18T22:43:50.947Z,94264.63
2023-03-18T22:46:18.070Z,94259.38
2023-03-18T22:48:45.046Z,94264.53
2023-03-18T22:51:29.954Z,94274.06
2023-03-18T22:53:56.976Z,94270.41
2023-03-18T22:56:24.062Z,94272.06
2023-03-18T22:58:51.369Z,94267.66
2023-03-18T23:01:21.374Z,94269.13
2023-03-18T23:03:49.048Z,94267.44
2023-03-18T23:06:20.909Z,94280.88
2023-03-18T23:08:48.108Z,94272.34
2023-03-18T23:11:16.638Z,94285.72
2023-03-18T23:13:47.606Z,94280.16
2023-03-18T23:16:20.403Z,94283.06
2023-03-18T23:18:47.686Z,94274.25
2023-03-18T23:21:21.738Z,94272.22
2023-03-18T23:23:49.024Z,94280.06
2023-03-18T23:26:16.246Z,94271.19
2023-03-18T23:28:45.388Z,94281.66
2023-03-18T23:31:14.956Z,94288.47
2023-03-18T23:33:42.572Z,94278.63
2023-03-18T23:36:09.734Z,94280.63
2023-03-18T23:38:37.996Z,94274.06
2023-03-18T23:41:05.629Z,94279.03
2023-03-18T23:43:32.385Z,94279.38
2023-03-18T23:45:59.309Z,94273.84
2023-03-18T23:48:26.288Z,94279.44
2023-03-18T23:50:54.093Z,94273.66
2023-03-18T23:53:21.054Z,94287.31
2023-03-18T23:55:49.540Z,94280.13
2023-03-18T23:58:16.715Z,94284.03
